sensor_id;sensor_type;location;lat;lon;timestamp;pressure;altitude;pressure_sealevel;temperature;humidity
37200;BME280;23096;50.892;16.746;2023-07-16T00:00:06;98697.95;;;27.07;47.45
37200;BME280;23096;50.892;16.746;2023-07-16T00:02:34;98693.48;;;27.04;47.60
37200;BME280;23096;50.892;16.746;2023-07-16T00:04:59;98692.77;;;27.01;47.75
37200;BME280;23096;50.892;16.746;2023-07-16T00:07:25;98691.48;;;26.98;47.92
37200;BME280;23096;50.892;16.746;2023-07-16T00:09:51;98687.09;;;26.95;47.99
37200;BME280;23096;50.892;16.746;2023-07-16T00:12:17;98684.77;;;26.92;48.06
37200;BME280;23096;50.892;16.746;2023-07-16T00:14:42;98684.62;;;26.88;48.19
37200;BME280;23096;50.892;16.746;2023-07-16T00:17:08;98686.77;;;26.85;48.31
37200;BME280;23096;50.892;16.746;2023-07-16T00:19:33;98687.38;;;26.83;48.40
37200;BME280;23096;50.892;16.746;2023-07-16T00:21:59;98685.90;;;26.78;48.57
37200;BME280;23096;50.892;16.746;2023-07-16T00:24:25;98690.34;;;26.74;48.58
37200;BME280;23096;50.892;16.746;2023-07-16T00:26:52;98686.09;;;26.71;48.76
37200;BME280;23096;50.892;16.746;2023-07-16T00:29:17;98684.10;;;26.69;48.92
37200;BME280;23096;50.892;16.746;2023-07-16T00:31:44;98685.69;;;26.66;48.97
37200;BME280;23096;50.892;16.746;2023-07-16T00:34:10;98685.64;;;26.62;49.07
37200;BME280;23096;50.892;16.746;2023-07-16T00:36:37;98686.55;;;26.57;49.23
37200;BME280;23096;50.892;16.746;2023-07-16T00:39:03;98683.70;;;26.52;49.33
37200;BME280;23096;50.892;16.746;2023-07-16T00:41:29;98679.95;;;26.50;49.53
37200;BME280;23096;50.892;16.746;2023-07-16T00:43:54;98681.00;;;26.45;49.57
37200;BME280;23096;50.892;16.746;2023-07-16T00:46:20;98684.01;;;26.43;49.69
37200;BME280;23096;50.892;16.746;2023-07-16T00:48:46;98682.88;;;26.44;49.91
37200;BME280;23096;50.892;16.746;2023-07-16T00:51:12;98675.61;;;26.44;49.97
37200;BME280;23096;50.892;16.746;2023-07-16T00:53:41;98676.23;;;26.43;50.05
37200;BME280;23096;50.892;16.746;2023-07-16T00:56:08;98673.19;;;26.42;50.10
37200;BME280;23096;50.892;16.746;2023-07-16T00:58:34;98661.80;;;26.44;50.19
37200;BME280;23096;50.892;16.746;2023-07-16T01:00:59;98651.64;;;26.44;50.28
37200;BME280;23096;50.892;16.746;2023-07-16T01:03:25;98649.05;;;26.44;50.51
37200;BME280;23096;50.892;16.746;2023-07-16T01:05:57;98653.30;;;26.44;50.55
37200;BME280;23096;50.892;16.746;2023-07-16T01:09:14;98655.65;;;26.43;50.61
37200;BME280;23096;50.892;16.746;2023-07-16T01:11:15;98657.73;;;26.43;50.68
37200;BME280;23096;50.892;16.746;2023-07-16T01:13:41;98658.13;;;26.45;50.76
37200;BME280;23096;50.892;16.746;2023-07-16T01:16:18;98656.34;;;26.45;50.84
37200;BME280;23096;50.892;16.746;2023-07-16T01:18:44;98655.05;;;26.44;50.91
37200;BME280;23096;50.892;16.746;2023-07-16T01:21:10;98655.58;;;26.40;50.91
37200;BME280;23096;50.892;16.746;2023-07-16T01:24:10;98654.95;;;26.36;51.09
37200;BME280;23096;50.892;16.746;2023-07-16T01:29:30;98637.99;;;26.31;51.28
37200;BME280;23096;50.892;16.746;2023-07-16T01:32:00;98628.55;;;26.28;51.25
37200;BME280;23096;50.892;16.746;2023-07-16T01:34:29;98625.95;;;26.26;51.50
37200;BME280;23096;50.892;16.746;2023-07-16T01:36:56;98623.00;;;26.24;51.61
37200;BME280;23096;50.892;16.746;2023-07-16T01:39:22;98622.73;;;26.23;51.59
37200;BME280;23096;50.892;16.746;2023-07-16T01:41:47;98617.55;;;26.23;51.67
37200;BME280;23096;50.892;16.746;2023-07-16T01:44:13;98615.98;;;26.23;51.92
37200;BME280;23096;50.892;16.746;2023-07-16T01:46:38;98617.00;;;26.24;51.88
37200;BME280;23096;50.892;16.746;2023-07-16T01:49:04;98621.15;;;26.27;52.04
37200;BME280;23096;50.892;16.746;2023-07-16T01:51:29;98615.36;;;26.25;52.06
37200;BME280;23096;50.892;16.746;2023-07-16T01:53:55;98623.09;;;26.25;52.13
37200;BME280;23096;50.892;16.746;2023-07-16T01:56:21;98624.48;;;26.27;52.29
37200;BME280;23096;50.892;16.746;2023-07-16T01:58:47;98620.40;;;26.29;52.24
37200;BME280;23096;50.892;16.746;2023-07-16T02:01:12;98621.33;;;26.30;52.27
37200;BME280;23096;50.892;16.746;2023-07-16T02:03:38;98624.32;;;26.32;52.48
37200;BME280;23096;50.892;16.746;2023-07-16T02:06:04;98627.63;;;26.34;52.42
37200;BME280;23096;50.892;16.746;2023-07-16T02:08:31;98635.77;;;26.35;52.55
37200;BME280;23096;50.892;16.746;2023-07-16T02:10:57;98639.60;;;26.35;52.46
37200;BME280;23096;50.892;16.746;2023-07-16T02:13:23;98644.42;;;26.34;52.56
37200;BME280;23096;50.892;16.746;2023-07-16T02:15:52;98641.45;;;26.34;52.62
37200;BME280;23096;50.892;16.746;2023-07-16T02:18:18;98639.73;;;26.34;52.43
37200;BME280;23096;50.892;16.746;2023-07-16T02:20:44;98646.51;;;26.33;52.61
37200;BME280;23096;50.892;16.746;2023-07-16T02:23:11;98649.17;;;26.33;52.58
37200;BME280;23096;50.892;16.746;2023-07-16T02:25:36;98645.15;;;26.33;52.73
37200;BME280;23096;50.892;16.746;2023-07-16T02:28:02;98641.32;;;26.32;52.69
37200;BME280;23096;50.892;16.746;2023-07-16T02:30:29;98640.10;;;26.31;52.61
37200;BME280;23096;50.892;16.746;2023-07-16T02:32:55;98643.36;;;26.31;52.77
37200;BME280;23096;50.892;16.746;2023-07-16T02:35:21;98639.44;;;26.32;52.75
37200;BME280;23096;50.892;16.746;2023-07-16T02:37:47;98637.33;;;26.30;52.72
37200;BME280;23096;50.892;16.746;2023-07-16T02:40:13;98643.36;;;26.27;52.79
37200;BME280;23096;50.892;16.746;2023-07-16T02:42:41;98653.36;;;26.27;52.82
37200;BME280;23096;50.892;16.746;2023-07-16T02:45:07;98675.11;;;26.29;52.89
37200;BME280;23096;50.892;16.746;2023-07-16T02:47:34;98688.14;;;26.22;52.71
37200;BME280;23096;50.892;16.746;2023-07-16T02:50:00;98695.32;;;26.16;52.66
37200;BME280;23096;50.892;16.746;2023-07-16T02:52:25;98703.40;;;26.13;52.72
37200;BME280;23096;50.892;16.746;2023-07-16T02:54:51;98699.31;;;26.10;52.78
37200;BME280;23096;50.892;16.746;2023-07-16T02:57:16;98700.41;;;26.06;52.78
37200;BME280;23096;50.892;16.746;2023-07-16T02:59:42;98703.93;;;26.04;52.87
37200;BME280;23096;50.892;16.746;2023-07-16T03:02:08;98707.29;;;26.01;52.90
37200;BME280;23096;50.892;16.746;2023-07-16T03:04:33;98712.66;;;25.96;52.91
37200;BME280;23096;50.892;16.746;2023-07-16T03:06:59;98721.35;;;25.92;52.92
37200;BME280;23096;50.892;16.746;2023-07-16T03:09:25;98733.58;;;25.90;53.09
37200;BME280;23096;50.892;16.746;2023-07-16T03:11:50;98740.00;;;25.87;53.09
37200;BME280;23096;50.892;16.746;2023-07-16T03:14:17;98753.28;;;25.84;53.27
37200;BME280;23096;50.892;16.746;2023-07-16T03:16:42;98760.96;;;25.81;53.41
37200;BME280;23096;50.892;16.746;2023-07-16T03:19:09;98759.30;;;25.77;53.41
37200;BME280;23096;50.892;16.746;2023-07-16T03:21:34;98765.92;;;25.72;53.63
37200;BME280;23096;50.892;16.746;2023-07-16T03:24:00;98779.34;;;25.69;53.72
37200;BME280;23096;50.892;16.746;2023-07-16T03:26:25;98795.45;;;25.64;53.61
37200;BME280;23096;50.892;16.746;2023-07-16T03:28:51;98843.94;;;25.56;53.68
37200;BME280;23096;50.892;16.746;2023-07-16T03:31:17;98915.44;;;25.48;53.80
37200;BME280;23096;50.892;16.746;2023-07-16T03:33:42;98936.42;;;25.38;54.01
37200;BME280;23096;50.892;16.746;2023-07-16T03:36:08;98938.61;;;25.30;54.21
37200;BME280;23096;50.892;16.746;2023-07-16T03:38:33;98926.60;;;25.23;54.40
37200;BME280;23096;50.892;16.746;2023-07-16T03:40:59;98922.92;;;25.23;54.60
37200;BME280;23096;50.892;16.746;2023-07-16T03:43:26;98922.85;;;25.23;54.62
37200;BME280;23096;50.892;16.746;2023-07-16T03:45:55;98918.66;;;25.25;54.84
37200;BME280;23096;50.892;16.746;2023-07-16T03:48:21;98925.51;;;25.27;54.86
37200;BME280;23096;50.892;16.746;2023-07-16T03:50:46;98938.41;;;25.29;55.03
37200;BME280;23096;50.892;16.746;2023-07-16T03:53:13;98933.30;;;25.29;55.16
37200;BME280;23096;50.892;16.746;2023-07-16T03:55:38;98929.00;;;25.29;55.07
37200;BME280;23096;50.892;16.746;2023-07-16T03:58:05;98947.02;;;25.32;55.20
37200;BME280;23096;50.892;16.746;2023-07-16T04:00:31;98946.02;;;25.35;55.35
37200;BME280;23096;50.892;16.746;2023-07-16T04:02:57;98958.79;;;25.39;55.31
37200;BME280;23096;50.892;16.746;2023-07-16T04:05:22;98969.63;;;25.43;55.41
37200;BME280;23096;50.892;16.746;2023-07-16T04:07:49;98967.10;;;25.48;55.44
37200;BME280;23096;50.892;16.746;2023-07-16T04:10:14;98970.24;;;25.53;55.49
37200;BME280;23096;50.892;16.746;2023-07-16T04:12:40;98980.91;;;25.57;55.60
37200;BME280;23096;50.892;16.746;2023-07-16T04:15:08;98995.13;;;25.61;55.51
37200;BME280;23096;50.892;16.746;2023-07-16T04:17:35;98994.86;;;25.64;55.61
37200;BME280;23096;50.892;16.746;2023-07-16T04:20:01;98997.04;;;25.65;55.52
37200;BME280;23096;50.892;16.746;2023-07-16T04:22:26;98997.89;;;25.63;55.44
37200;BME280;23096;50.892;16.746;2023-07-16T04:24:52;99011.67;;;25.61;55.23
37200;BME280;23096;50.892;16.746;2023-07-16T04:27:17;99016.00;;;25.60;55.14
37200;BME280;23096;50.892;16.746;2023-07-16T04:29:43;99017.69;;;25.59;54.82
37200;BME280;23096;50.892;16.746;2023-07-16T04:32:09;99022.11;;;25.57;54.69
37200;BME280;23096;50.892;16.746;2023-07-16T04:34:34;99035.89;;;25.54;54.66
37200;BME280;23096;50.892;16.746;2023-07-16T04:37:00;99046.89;;;25.53;54.50
37200;BME280;23096;50.892;16.746;2023-07-16T04:39:25;99049.59;;;25.53;54.27
37200;BME280;23096;50.892;16.746;2023-07-16T04:41:51;99048.83;;;25.53;54.12
37200;BME280;23096;50.892;16.746;2023-07-16T04:44:17;99054.59;;;25.56;54.09
37200;BME280;23096;50.892;16.746;2023-07-16T04:46:42;99060.38;;;25.59;54.05
37200;BME280;23096;50.892;16.746;2023-07-16T04:49:08;99058.11;;;25.61;53.93
37200;BME280;23096;50.892;16.746;2023-07-16T04:51:33;99059.43;;;25.65;53.78
37200;BME280;23096;50.892;16.746;2023-07-16T04:53:59;99052.86;;;25.68;53.71
37200;BME280;23096;50.892;16.746;2023-07-16T04:56:24;99050.70;;;25.70;53.64
37200;BME280;23096;50.892;16.746;2023-07-16T04:58:50;99050.73;;;25.70;53.49
37200;BME280;23096;50.892;16.746;2023-07-16T05:01:15;99049.30;;;25.68;53.47
37200;BME280;23096;50.892;16.746;2023-07-16T05:03:41;99050.33;;;25.69;53.40
37200;BME280;23096;50.892;16.746;2023-07-16T05:06:07;99059.59;;;25.69;53.18
37200;BME280;23096;50.892;16.746;2023-07-16T05:08:32;99061.57;;;25.67;53.21
37200;BME280;23096;50.892;16.746;2023-07-16T05:10:58;99063.97;;;25.64;53.06
37200;BME280;23096;50.892;16.746;2023-07-16T05:13:24;99067.48;;;25.62;53.02
37200;BME280;23096;50.892;16.746;2023-07-16T05:15:51;99076.41;;;25.65;53.08
37200;BME280;23096;50.892;16.746;2023-07-16T05:18:16;99087.55;;;25.68;53.06
37200;BME280;23096;50.892;16.746;2023-07-16T05:20:42;99092.29;;;25.70;52.83
37200;BME280;23096;50.892;16.746;2023-07-16T05:23:09;99092.08;;;25.72;52.98
37200;BME280;23096;50.892;16.746;2023-07-16T05:25:35;99097.36;;;25.73;53.02
37200;BME280;23096;50.892;16.746;2023-07-16T05:28:00;99098.14;;;25.72;52.73
37200;BME280;23096;50.892;16.746;2023-07-16T05:30:26;99095.38;;;25.74;52.74
37200;BME280;23096;50.892;16.746;2023-07-16T05:32:51;99091.19;;;25.75;52.68
37200;BME280;23096;50.892;16.746;2023-07-16T05:35:17;99096.22;;;25.78;52.65
37200;BME280;23096;50.892;16.746;2023-07-16T05:37:43;99103.23;;;25.80;52.50
37200;BME280;23096;50.892;16.746;2023-07-16T05:40:08;99104.33;;;25.81;52.74
37200;BME280;23096;50.892;16.746;2023-07-16T05:42:34;99106.08;;;25.83;52.53
37200;BME280;23096;50.892;16.746;2023-07-16T05:45:00;99100.51;;;25.84;52.42
37200;BME280;23096;50.892;16.746;2023-07-16T05:47:26;99107.80;;;25.87;52.52
37200;BME280;23096;50.892;16.746;2023-07-16T05:49:51;99109.05;;;25.93;52.35
37200;BME280;23096;50.892;16.746;2023-07-16T05:52:17;99115.16;;;25.95;52.18
37200;BME280;23096;50.892;16.746;2023-07-16T05:54:45;99115.63;;;25.92;52.04
37200;BME280;23096;50.892;16.746;2023-07-16T05:57:11;99120.41;;;25.86;51.77
37200;BME280;23096;50.892;16.746;2023-07-16T05:59:36;99128.30;;;25.80;51.93
37200;BME280;23096;50.892;16.746;2023-07-16T06:02:06;99133.98;;;25.75;51.83
37200;BME280;23096;50.892;16.746;2023-07-16T06:04:31;99134.33;;;25.69;51.91
37200;BME280;23096;50.892;16.746;2023-07-16T06:06:57;99142.80;;;25.67;51.79
37200;BME280;23096;50.892;16.746;2023-07-16T06:09:23;99142.95;;;25.66;51.78
37200;BME280;23096;50.892;16.746;2023-07-16T06:11:48;99143.06;;;25.64;51.79
37200;BME280;23096;50.892;16.746;2023-07-16T06:14:14;99140.23;;;25.61;51.68
37200;BME280;23096;50.892;16.746;2023-07-16T06:16:40;99141.75;;;25.58;51.65
37200;BME280;23096;50.892;16.746;2023-07-16T06:19:06;99149.30;;;25.56;51.73
37200;BME280;23096;50.892;16.746;2023-07-16T06:21:32;99148.41;;;25.55;51.74
37200;BME280;23096;50.892;16.746;2023-07-16T06:23:58;99152.75;;;25.52;51.71
37200;BME280;23096;50.892;16.746;2023-07-16T06:26:24;99164.00;;;25.50;51.64
37200;BME280;23096;50.892;16.746;2023-07-16T06:28:49;99171.64;;;25.49;51.49
37200;BME280;23096;50.892;16.746;2023-07-16T06:31:16;99171.21;;;25.48;51.67
37200;BME280;23096;50.892;16.746;2023-07-16T06:33:42;99175.14;;;25.47;51.55
37200;BME280;23096;50.892;16.746;2023-07-16T06:36:07;99178.02;;;25.47;51.65
37200;BME280;23096;50.892;16.746;2023-07-16T06:38:33;99181.66;;;25.47;51.30
37200;BME280;23096;50.892;16.746;2023-07-16T06:40:59;99188.81;;;25.46;51.27
37200;BME280;23096;50.892;16.746;2023-07-16T06:43:24;99196.45;;;25.43;51.23
37200;BME280;23096;50.892;16.746;2023-07-16T06:45:50;99203.48;;;25.41;51.28
37200;BME280;23096;50.892;16.746;2023-07-16T06:48:16;99210.73;;;25.37;51.13
37200;BME280;23096;50.892;16.746;2023-07-16T06:50:43;99212.20;;;25.34;51.16
37200;BME280;23096;50.892;16.746;2023-07-16T06:53:08;99203.78;;;25.30;51.17
37200;BME280;23096;50.892;16.746;2023-07-16T06:55:35;99199.59;;;25.28;51.26
37200;BME280;23096;50.892;16.746;2023-07-16T06:58:00;99193.91;;;25.27;51.18
37200;BME280;23096;50.892;16.746;2023-07-16T07:00:26;99190.67;;;25.26;51.27
37200;BME280;23096;50.892;16.746;2023-07-16T07:02:52;99183.98;;;25.26;51.27
37200;BME280;23096;50.892;16.746;2023-07-16T07:05:17;99184.61;;;25.29;51.41
37200;BME280;23096;50.892;16.746;2023-07-16T07:07:43;99183.20;;;25.32;51.51
37200;BME280;23096;50.892;16.746;2023-07-16T07:10:12;99185.35;;;25.37;51.54
37200;BME280;23096;50.892;16.746;2023-07-16T07:12:38;99189.91;;;25.41;51.70
37200;BME280;23096;50.892;16.746;2023-07-16T07:15:09;99196.23;;;25.43;51.65
37200;BME280;23096;50.892;16.746;2023-07-16T07:17:37;99197.37;;;25.44;51.75
37200;BME280;23096;50.892;16.746;2023-07-16T07:20:02;99199.64;;;25.44;51.77
37200;BME280;23096;50.892;16.746;2023-07-16T07:22:29;99201.39;;;25.44;51.74
37200;BME280;23096;50.892;16.746;2023-07-16T07:24:54;99198.69;;;25.43;51.86
37200;BME280;23096;50.892;16.746;2023-07-16T07:27:20;99203.08;;;25.43;51.94
37200;BME280;23096;50.892;16.746;2023-07-16T07:29:45;99200.89;;;25.44;51.93
37200;BME280;23096;50.892;16.746;2023-07-16T07:32:12;99202.85;;;25.43;51.83
37200;BME280;23096;50.892;16.746;2023-07-16T07:34:38;99207.00;;;25.43;52.00
37200;BME280;23096;50.892;16.746;2023-07-16T07:37:05;99203.90;;;25.42;52.05
37200;BME280;23096;50.892;16.746;2023-07-16T07:39:30;99204.95;;;25.42;52.04
37200;BME280;23096;50.892;16.746;2023-07-16T07:41:57;99201.59;;;25.42;52.07
37200;BME280;23096;50.892;16.746;2023-07-16T07:44:22;99199.92;;;25.43;52.07
37200;BME280;23096;50.892;16.746;2023-07-16T07:46:48;99204.14;;;25.45;52.07
37200;BME280;23096;50.892;16.746;2023-07-16T07:49:13;99198.88;;;25.47;52.15
37200;BME280;23096;50.892;16.746;2023-07-16T07:51:39;99197.77;;;25.48;52.07
37200;BME280;23096;50.892;16.746;2023-07-16T07:54:05;99192.21;;;25.49;52.23
37200;BME280;23096;50.892;16.746;2023-07-16T07:56:30;99184.79;;;25.51;52.27
37200;BME280;23096;50.892;16.746;2023-07-16T07:58:56;99182.74;;;25.56;52.29
37200;BME280;23096;50.892;16.746;2023-07-16T08:01:21;99181.71;;;25.61;52.40
37200;BME280;23096;50.892;16.746;2023-07-16T08:03:47;99182.23;;;25.67;52.39
37200;BME280;23096;50.892;16.746;2023-07-16T08:06:13;99178.68;;;25.71;52.32
37200;BME280;23096;50.892;16.746;2023-07-16T08:08:38;99169.25;;;25.74;52.41
37200;BME280;23096;50.892;16.746;2023-07-16T08:11:04;99169.80;;;25.79;52.49
37200;BME280;23096;50.892;16.746;2023-07-16T08:13:29;99163.80;;;25.85;52.42
37200;BME280;23096;50.892;16.746;2023-07-16T08:15:55;99162.39;;;25.92;52.47
37200;BME280;23096;50.892;16.746;2023-07-16T08:18:20;99154.55;;;25.97;52.36
37200;BME280;23096;50.892;16.746;2023-07-16T08:20:46;99152.05;;;26.03;52.42
37200;BME280;23096;50.892;16.746;2023-07-16T08:23:12;99150.84;;;26.08;52.51
37200;BME280;23096;50.892;16.746;2023-07-16T08:25:38;99145.36;;;26.12;52.58
37200;BME280;23096;50.892;16.746;2023-07-16T08:28:03;99134.17;;;26.15;52.63
37200;BME280;23096;50.892;16.746;2023-07-16T08:30:29;99129.01;;;26.17;52.55
37200;BME280;23096;50.892;16.746;2023-07-16T08:32:55;99129.85;;;26.19;52.56
37200;BME280;23096;50.892;16.746;2023-07-16T08:35:20;99130.73;;;26.17;52.62
37200;BME280;23096;50.892;16.746;2023-07-16T08:37:46;99126.77;;;26.15;52.71
37200;BME280;23096;50.892;16.746;2023-07-16T08:40:12;99121.79;;;26.10;52.68
37200;BME280;23096;50.892;16.746;2023-07-16T08:42:44;99120.07;;;26.06;52.77
37200;BME280;23096;50.892;16.746;2023-07-16T08:45:10;99106.85;;;26.01;52.80
37200;BME280;23096;50.892;16.746;2023-07-16T08:47:36;99098.06;;;25.95;52.88
37200;BME280;23096;50.892;16.746;2023-07-16T08:50:02;99094.45;;;25.89;52.87
37200;BME280;23096;50.892;16.746;2023-07-16T08:52:29;99099.30;;;25.84;52.90
37200;BME280;23096;50.892;16.746;2023-07-16T08:54:55;99099.39;;;25.78;53.00
37200;BME280;23096;50.892;16.746;2023-07-16T08:57:21;99111.55;;;25.70;53.15
37200;BME280;23096;50.892;16.746;2023-07-16T08:59:50;99129.70;;;25.64;53.32
37200;BME280;23096;50.892;16.746;2023-07-16T09:02:20;99139.98;;;25.62;53.63
37200;BME280;23096;50.892;16.746;2023-07-16T09:04:49;99138.59;;;25.61;53.89
37200;BME280;23096;50.892;16.746;2023-07-16T09:07:18;99127.85;;;25.62;54.06
37200;BME280;23096;50.892;16.746;2023-07-16T09:09:54;99125.96;;;25.61;54.26
37200;BME280;23096;50.892;16.746;2023-07-16T09:12:23;99132.67;;;25.61;54.43
37200;BME280;23096;50.892;16.746;2023-07-16T09:14:49;99150.55;;;25.63;54.52
37200;BME280;23096;50.892;16.746;2023-07-16T09:17:20;99160.68;;;25.64;54.66
37200;BME280;23096;50.892;16.746;2023-07-16T09:19:47;99165.38;;;25.67;54.83
37200;BME280;23096;50.892;16.746;2023-07-16T09:22:18;99163.78;;;25.70;54.83
37200;BME280;23096;50.892;16.746;2023-07-16T09:24:45;99166.03;;;25.74;54.90
37200;BME280;23096;50.892;16.746;2023-07-16T09:27:12;99169.09;;;25.79;54.91
37200;BME280;23096;50.892;16.746;2023-07-16T09:29:38;99176.78;;;25.83;54.90
37200;BME280;23096;50.892;16.746;2023-07-16T09:32:04;99184.52;;;25.85;54.97
37200;BME280;23096;50.892;16.746;2023-07-16T09:34:33;99182.85;;;25.86;55.14
37200;BME280;23096;50.892;16.746;2023-07-16T09:37:00;99180.29;;;25.87;55.11
37200;BME280;23096;50.892;16.746;2023-07-16T09:39:26;99184.14;;;25.87;55.09
37200;BME280;23096;50.892;16.746;2023-07-16T09:41:53;99182.45;;;25.87;55.10
37200;BME280;23096;50.892;16.746;2023-07-16T09:44:19;99180.76;;;25.88;55.09
37200;BME280;23096;50.892;16.746;2023-07-16T09:46:46;99178.69;;;25.89;55.28
37200;BME280;23096;50.892;16.746;2023-07-16T09:49:14;99181.93;;;25.92;55.38
37200;BME280;23096;50.892;16.746;2023-07-16T09:51:39;99180.96;;;25.95;55.31
37200;BME280;23096;50.892;16.746;2023-07-16T09:54:06;99190.04;;;25.98;55.36
37200;BME280;23096;50.892;16.746;2023-07-16T09:56:41;99191.73;;;26.00;55.51
37200;BME280;23096;50.892;16.746;2023-07-16T09:59:12;99199.69;;;26.03;55.70
37200;BME280;23096;50.892;16.746;2023-07-16T10:01:39;99208.19;;;26.05;55.56
37200;BME280;23096;50.892;16.746;2023-07-16T10:04:15;99211.33;;;26.07;55.66
37200;BME280;23096;50.892;16.746;2023-07-16T10:09:40;99218.32;;;26.12;55.76
37200;BME280;23096;50.892;16.746;2023-07-16T10:14:44;99219.77;;;26.19;56.02
37200;BME280;23096;50.892;16.746;2023-07-16T10:17:19;99222.15;;;26.22;56.08
37200;BME280;23096;50.892;16.746;2023-07-16T10:22:13;99230.26;;;26.28;56.06
37200;BME280;23096;50.892;16.746;2023-07-16T10:24:39;99233.16;;;26.30;56.08
37200;BME280;23096;50.892;16.746;2023-07-16T10:27:05;99230.98;;;26.34;56.07
37200;BME280;23096;50.892;16.746;2023-07-16T10:29:30;99228.80;;;26.37;56.07
37200;BME280;23096;50.892;16.746;2023-07-16T10:31:58;99231.36;;;26.39;56.22
37200;BME280;23096;50.892;16.746;2023-07-16T10:41:17;99245.55;;;26.49;56.46
37200;BME280;23096;50.892;16.746;2023-07-16T10:43:42;99249.08;;;26.53;56.38
37200;BME280;23096;50.892;16.746;2023-07-16T10:46:09;99250.08;;;26.57;56.54
37200;BME280;23096;50.892;16.746;2023-07-16T10:48:34;99243.95;;;26.62;56.33
37200;BME280;23096;50.892;16.746;2023-07-16T10:51:00;99244.15;;;26.67;56.34
37200;BME280;23096;50.892;16.746;2023-07-16T10:53:25;99254.25;;;26.70;55.99
37200;BME280;23096;50.892;16.746;2023-07-16T10:55:51;99257.86;;;26.62;55.91
37200;BME280;23096;50.892;16.746;2023-07-16T10:58:17;99263.61;;;26.43;55.65
37200;BME280;23096;50.892;16.746;2023-07-16T11:00:42;99267.98;;;26.27;55.65
37200;BME280;23096;50.892;16.746;2023-07-16T11:03:10;99267.59;;;26.13;55.59
37200;BME280;23096;50.892;16.746;2023-07-16T11:05:35;99269.44;;;26.01;55.84
37200;BME280;23096;50.892;16.746;2023-07-16T11:08:02;99262.30;;;25.88;55.69
37200;BME280;23096;50.892;16.746;2023-07-16T11:10:29;99258.79;;;25.74;55.82
37200;BME280;23096;50.892;16.746;2023-07-16T11:12:56;99265.33;;;25.64;55.97
37200;BME280;23096;50.892;16.746;2023-07-16T11:15:42;99268.52;;;25.58;56.04
37200;BME280;23096;50.892;16.746;2023-07-16T11:18:08;99272.34;;;25.51;56.22
37200;BME280;23096;50.892;16.746;2023-07-16T11:20:33;99277.72;;;25.46;56.24
37200;BME280;23096;50.892;16.746;2023-07-16T11:22:59;99274.63;;;25.39;56.29
37200;BME280;23096;50.892;16.746;2023-07-16T11:25:25;99276.80;;;25.35;56.42
37200;BME280;23096;50.892;16.746;2023-07-16T11:27:54;99274.79;;;25.30;56.41
37200;BME280;23096;50.892;16.746;2023-07-16T11:30:23;99278.35;;;25.26;56.43
37200;BME280;23096;50.892;16.746;2023-07-16T11:32:49;99279.08;;;25.24;56.52
37200;BME280;23096;50.892;16.746;2023-07-16T11:35:16;99282.36;;;25.24;56.57
37200;BME280;23096;50.892;16.746;2023-07-16T11:37:43;99284.65;;;25.28;56.58
37200;BME280;23096;50.892;16.746;2023-07-16T11:40:11;99286.39;;;25.30;56.63
37200;BME280;23096;50.892;16.746;2023-07-16T11:42:39;99288.77;;;25.30;56.56
37200;BME280;23096;50.892;16.746;2023-07-16T11:45:15;99286.34;;;25.29;56.52
37200;BME280;23096;50.892;16.746;2023-07-16T11:47:41;99282.02;;;25.28;56.48
37200;BME280;23096;50.892;16.746;2023-07-16T11:50:07;99283.02;;;25.27;56.47
37200;BME280;23096;50.892;16.746;2023-07-16T11:52:33;99281.10;;;25.25;56.55
37200;BME280;23096;50.892;16.746;2023-07-16T11:54:59;99278.52;;;25.22;56.44
37200;BME280;23096;50.892;16.746;2023-07-16T11:57:30;99281.75;;;25.21;56.51
37200;BME280;23096;50.892;16.746;2023-07-16T11:59:56;99279.59;;;25.22;56.56
37200;BME280;23096;50.892;16.746;2023-07-16T12:02:22;99288.05;;;25.24;56.54
37200;BME280;23096;50.892;16.746;2023-07-16T12:04:48;99287.29;;;25.26;56.58
37200;BME280;23096;50.892;16.746;2023-07-16T12:07:14;99287.83;;;25.30;56.58
37200;BME280;23096;50.892;16.746;2023-07-16T12:09:40;99287.94;;;25.32;56.66
37200;BME280;23096;50.892;16.746;2023-07-16T12:12:06;99293.63;;;25.34;56.67
37200;BME280;23096;50.892;16.746;2023-07-16T12:14:32;99295.35;;;25.34;56.52
37200;BME280;23096;50.892;16.746;2023-07-16T12:16:58;99293.16;;;25.35;56.46
37200;BME280;23096;50.892;16.746;2023-07-16T12:19:24;99286.96;;;25.36;56.46
37200;BME280;23096;50.892;16.746;2023-07-16T12:21:50;99279.00;;;25.34;56.55
37200;BME280;23096;50.892;16.746;2023-07-16T12:24:16;99288.70;;;25.36;56.59
37200;BME280;23096;50.892;16.746;2023-07-16T12:26:42;99291.83;;;25.38;56.50
37200;BME280;23096;50.892;16.746;2023-07-16T12:29:07;99288.77;;;25.45;56.64
37200;BME280;23096;50.892;16.746;2023-07-16T12:31:33;99283.38;;;25.50;56.71
37200;BME280;23096;50.892;16.746;2023-07-16T12:34:00;99281.36;;;25.54;56.69
37200;BME280;23096;50.892;16.746;2023-07-16T12:36:29;99274.60;;;25.57;56.71
37200;BME280;23096;50.892;16.746;2023-07-16T12:38:55;99272.73;;;25.58;56.74
37200;BME280;23096;50.892;16.746;2023-07-16T12:41:20;99271.71;;;25.58;56.70
37200;BME280;23096;50.892;16.746;2023-07-16T12:43:47;99273.29;;;25.58;56.57
37200;BME280;23096;50.892;16.746;2023-07-16T12:46:12;99273.31;;;25.59;56.68
37200;BME280;23096;50.892;16.746;2023-07-16T12:48:38;99279.06;;;25.62;56.74
37200;BME280;23096;50.892;16.746;2023-07-16T12:51:03;99277.51;;;25.60;56.62
37200;BME280;23096;50.892;16.746;2023-07-16T12:53:29;99278.52;;;25.56;56.63
37200;BME280;23096;50.892;16.746;2023-07-16T12:55:54;99274.34;;;25.54;56.69
37200;BME280;23096;50.892;16.746;2023-07-16T12:58:21;99276.11;;;25.54;56.74
37200;BME280;23096;50.892;16.746;2023-07-16T13:00:47;99279.55;;;25.55;56.80
37200;BME280;23096;50.892;16.746;2023-07-16T13:03:12;99281.81;;;25.59;56.90